Aviation Digital Data Service (ADDS)

Output produced by METARs form (1718 UTC 18 January 2018)
found at http://aviationweather.gov/adds/metars/
 
KDUJ 181622Z 1816/1912 25011G22KT P6SM SCT020 
     FM190100 23010KT P6SM SKC